createdAt,value
2023-05-02T00:02:08.359Z,97020.25
2023-05-02T00:04:34.792Z,97027.19
2023-05-02T00:07:01.194Z,97023.19
2023-05-02T00:09:27.461Z,97015.41
2023-05-02T00:11:53.733Z,97019.16
2023-05-02T00:14:19.989Z,97023.09
2023-05-02T00:16:46.296Z,97017.44
2023-05-02T00:19:12.610Z,97012.03
2023-05-02T00:21:38.852Z,97017.13
2023-05-02T00:24:05.105Z,97019.56
2023-05-02T00:26:31.378Z,97017.19
2023-05-02T00:28:57.621Z,97011.00
2023-05-02T00:31:23.909Z,97012.38
2023-05-02T00:33:50.268Z,97009.94
2023-05-02T00:36:16.571Z,97007.53
2023-05-02T00:38:42.853Z,97009.69
2023-05-02T00:41:09.100Z,97009.13
2023-05-02T00:43:35.357Z,97003.22
2023-05-02T00:46:01.649Z,97003.47
2023-05-02T00:48:27.979Z,97008.03
2023-05-02T00:50:54.240Z,97006.66
2023-05-02T00:53:20.499Z,97002.31
2023-05-02T00:55:46.776Z,97005.25
2023-05-02T00:58:13.069Z,96998.25
2023-05-02T01:00:39.328Z,96999.81
2023-05-02T01:03:05.730Z,96995.78
2023-05-02T01:05:32.052Z,96999.75
2023-05-02T01:07:58.362Z,97000.69
2023-05-02T01:10:24.653Z,97001.69
2023-05-02T01:12:50.926Z,97000.03
2023-05-02T01:15:17.196Z,96998.97
2023-05-02T01:17:43.538Z,97007.81
2023-05-02T01:20:09.809Z,97009.13
2023-05-02T01:22:36.065Z,97011.00
2023-05-02T01:25:02.356Z,97005.88
2023-05-02T01:27:28.626Z,97006.69
2023-05-02T01:29:54.910Z,97006.94
2023-05-02T01:32:21.174Z,97009.63
2023-05-02T01:34:47.477Z,97007.44
2023-05-02T01:37:13.754Z,97006.63
2023-05-02T01:39:40.022Z,97006.31
2023-05-02T01:42:06.321Z,97002.28
2023-05-02T01:44:32.600Z,97006.56
2023-05-02T01:46:58.949Z,97009.50
2023-05-02T01:49:25.276Z,97003.00
2023-05-02T01:51:51.584Z,96998.16
2023-05-02T01:54:17.851Z,96998.16
2023-05-02T01:56:44.121Z,97007.81
2023-05-02T01:59:10.383Z,97010.75
2023-05-02T02:01:36.706Z,97007.25
2023-05-02T02:04:03.127Z,97014.72
2023-05-02T02:06:29.452Z,97011.03
2023-05-02T02:08:55.805Z,97020.28
2023-05-02T02:11:22.059Z,97021.75
2023-05-02T02:13:48.316Z,97022.91
2023-05-02T02:16:14.650Z,97021.03
2023-05-02T02:18:40.959Z,97021.22
2023-05-02T02:21:07.249Z,97025.66
2023-05-02T02:23:33.665Z,97020.25
2023-05-02T02:25:59.970Z,97026.81
2023-05-02T02:28:26.213Z,97019.09
2023-05-02T02:30:52.518Z,97031.97
2023-05-02T02:33:18.799Z,97031.63
2023-05-02T02:35:45.068Z,97029.69
2023-05-02T02:38:11.355Z,97024.81
2023-05-02T02:40:37.625Z,97023.19
2023-05-02T02:43:03.957Z,97027.97
2023-05-02T02:45:30.253Z,97035.44
2023-05-02T02:47:56.509Z,97035.56
2023-05-02T02:50:22.923Z,97038.72
2023-05-02T02:52:49.205Z,97035.50
2023-05-02T02:55:15.499Z,97032.13
2023-05-02T02:57:41.800Z,97031.09
2023-05-02T03:00:08.075Z,97029.94
2023-05-02T03:02:34.569Z,97029.47
2023-05-02T03:05:00.875Z,97035.38
2023-05-02T03:07:27.132Z,97035.63
2023-05-02T03:09:53.423Z,97027.59
2023-05-02T03:12:19.704Z,97030.06
2023-05-02T03:14:45.956Z,97029.94
2023-05-02T03:17:12.242Z,97036.41
2023-05-02T03:19:38.553Z,97039.75
2023-05-02T03:22:04.812Z,97042.41
2023-05-02T03:24:31.085Z,97036.97
2023-05-02T03:26:57.345Z,97045.44
2023-05-02T03:29:23.613Z,97043.69
2023-05-02T03:31:49.934Z,97039.69
2023-05-02T03:34:16.204Z,97036.44
2023-05-02T03:36:42.490Z,97048.53
2023-05-02T03:39:08.768Z,97048.44
2023-05-02T03:41:35.062Z,97041.72
2023-05-02T03:44:01.355Z,97047.06
2023-05-02T03:46:27.600Z,97046.94
2023-05-02T03:48:53.910Z,97054.59
2023-05-02T03:51:20.161Z,97043.31
2023-05-02T03:53:46.441Z,97043.28
2023-05-02T03:56:12.696Z,97040.94
2023-05-02T03:58:38.969Z,97043.81
2023-05-02T04:01:05.259Z,97037.31
2023-05-02T04:03:31.570Z,97041.38
2023-05-02T04:05:57.869Z,97049.84
2023-05-02T04:08:24.116Z,97047.44
2023-05-02T04:10:50.382Z,97041.31
2023-05-02T04:13:16.634Z,97051.19
2023-05-02T04:15:42.887Z,97051.44
2023-05-02T04:18:09.234Z,97050.28
2023-05-02T04:20:35.580Z,97048.66
2023-05-02T04:23:01.855Z,97051.69
2023-05-02T04:25:28.172Z,97049.25
2023-05-02T04:27:54.437Z,97049.94
2023-05-02T04:30:20.694Z,97054.25
2023-05-02T04:32:46.982Z,97055.75
2023-05-02T04:35:13.314Z,97060.03
2023-05-02T04:37:39.604Z,97062.47
2023-05-02T04:40:05.855Z,97065.50
2023-05-02T04:42:32.164Z,97067.47
2023-05-02T04:44:58.540Z,97072.69
2023-05-02T04:47:24.851Z,97078.03
2023-05-02T04:49:51.128Z,97078.50
2023-05-02T04:52:17.414Z,97077.22
2023-05-02T04:54:43.687Z,97086.84
2023-05-02T04:57:09.937Z,97089.28
2023-05-02T04:59:36.219Z,97089.88
2023-05-02T05:02:02.580Z,97100.53
2023-05-02T05:04:28.894Z,97093.22
2023-05-02T05:06:55.211Z,97099.59
2023-05-02T05:09:21.579Z,97103.38
2023-05-02T05:11:47.861Z,97105.00
2023-05-02T05:14:14.144Z,97102.31
2023-05-02T05:16:40.482Z,97110.53
2023-05-02T05:19:06.780Z,97106.91
2023-05-02T05:21:33.038Z,97108.84
2023-05-02T05:23:59.314Z,97119.88
2023-05-02T05:26:25.596Z,97124.25
2023-05-02T05:28:51.876Z,97119.16
2023-05-02T05:31:18.193Z,97113.56
2023-05-02T05:33:44.597Z,97123.31
2023-05-02T05:36:10.940Z,97127.22
2023-05-02T05:38:37.188Z,97119.19
2023-05-02T05:41:03.469Z,97124.41
2023-05-02T05:43:29.738Z,97123.34
2023-05-02T05:45:56.054Z,97121.81
2023-05-02T05:48:22.398Z,97132.22
2023-05-02T05:50:48.694Z,97131.31
2023-05-02T05:53:15.015Z,97124.53
2023-05-02T05:55:42.352Z,97128.94
2023-05-02T05:58:08.781Z,97133.81
2023-05-02T06:00:35.060Z,97127.81
2023-05-02T06:03:01.462Z,97136.09
2023-05-02T06:05:27.832Z,97136.25
2023-05-02T06:07:54.137Z,97138.63
2023-05-02T06:10:20.417Z,97146.03
2023-05-02T06:12:47.289Z,97145.88
2023-05-02T06:15:15.400Z,97152.69
2023-05-02T06:17:41.693Z,97153.56
2023-05-02T06:20:08.044Z,97154.25
2023-05-02T06:22:34.311Z,97157.09
2023-05-02T06:25:00.575Z,97149.63
2023-05-02T06:27:26.851Z,97153.34
2023-05-02T06:29:53.156Z,97149.22
2023-05-02T06:32:19.443Z,97150.59
2023-05-02T06:34:45.696Z,97152.53
2023-05-02T06:37:11.940Z,97160.16
2023-05-02T06:39:38.209Z,97158.13
2023-05-02T06:42:04.494Z,97161.44
2023-05-02T06:44:30.789Z,97159.13
2023-05-02T06:46:57.176Z,97157.91
2023-05-02T06:49:23.477Z,97162.69
2023-05-02T06:51:49.723Z,97156.84
2023-05-02T06:54:16.054Z,97162.50
2023-05-02T06:56:42.309Z,97165.47
2023-05-02T06:59:08.554Z,97164.00
2023-05-02T07:01:34.923Z,97165.69
2023-05-02T07:04:01.333Z,97163.88
2023-05-02T07:06:27.699Z,97167.78
2023-05-02T07:08:54.016Z,97159.56
2023-05-02T07:11:20.285Z,97157.31
2023-05-02T07:13:46.597Z,97166.28
2023-05-02T07:16:12.920Z,97162.03
2023-05-02T07:18:39.178Z,97165.19
2023-05-02T07:21:05.467Z,97171.59
2023-05-02T07:23:31.822Z,97172.31
2023-05-02T07:25:58.133Z,97163.00
2023-05-02T07:28:24.399Z,97158.81
2023-05-02T07:30:50.652Z,97154.03
2023-05-02T07:33:17.106Z,97157.22
2023-05-02T07:35:43.388Z,97160.00
2023-05-02T07:38:09.662Z,97161.91
2023-05-02T07:40:35.947Z,97159.03
2023-05-02T07:43:02.222Z,97149.94
2023-05-02T07:45:28.484Z,97161.53
2023-05-02T07:47:54.818Z,97153.72
2023-05-02T07:50:21.111Z,97147.38
2023-05-02T07:52:47.414Z,97153.06
2023-05-02T07:55:13.694Z,97145.59
2023-05-02T07:57:39.976Z,97147.72
2023-05-02T08:00:06.281Z,97147.56
2023-05-02T08:02:32.639Z,97140.91
2023-05-02T08:04:58.997Z,97125.63
2023-05-02T08:07:25.310Z,97124.56
2023-05-02T08:09:51.621Z,97139.88
2023-05-02T08:12:17.872Z,97138.81
2023-05-02T08:14:44.158Z,97143.09
2023-05-02T08:17:10.415Z,97136.63
2023-05-02T08:19:36.675Z,97131.53
2023-05-02T08:22:02.974Z,97146.88
2023-05-02T08:24:29.232Z,97143.94
2023-05-02T08:26:55.522Z,97141.28
2023-05-02T08:29:21.812Z,97133.00
2023-05-02T08:31:48.137Z,97139.75
2023-05-02T08:34:14.443Z,97137.25
2023-05-02T08:36:40.738Z,97136.16
2023-05-02T08:39:07.002Z,97135.63
2023-05-02T08:41:33.279Z,97124.59
2023-05-02T08:43:59.540Z,97132.16
2023-05-02T08:46:25.837Z,97141.63
2023-05-02T08:48:52.127Z,97143.84
2023-05-02T08:53:49.592Z,97147.38
2023-05-02T08:56:15.862Z,97151.97
2023-05-02T08:58:42.144Z,97150.94
2023-05-02T09:01:08.433Z,97148.75
2023-05-02T09:03:34.709Z,97147.38
2023-05-02T09:06:01.003Z,97152.50
2023-05-02T09:08:27.428Z,97149.84
2023-05-02T09:10:53.748Z,97152.56
2023-05-02T09:13:20.039Z,97157.47
2023-05-02T09:15:46.331Z,97149.94
2023-05-02T09:18:12.585Z,97149.41
2023-05-02T09:20:38.832Z,97162.88
2023-05-02T09:23:05.110Z,97155.31
2023-05-02T09:25:31.371Z,97154.22
2023-05-02T09:27:57.637Z,97138.34
2023-05-02T09:30:23.920Z,97158.53
2023-05-02T09:32:50.236Z,97159.63
2023-05-02T09:35:16.512Z,97162.34
2023-05-02T09:37:42.786Z,97158.31
2023-05-02T09:40:09.050Z,97161.00
2023-05-02T09:42:35.316Z,97158.84
2023-05-02T09:45:01.706Z,97160.47
2023-05-02T09:47:28.083Z,97153.72
2023-05-02T09:49:54.411Z,97154.53
2023-05-02T09:52:20.658Z,97153.47
2023-05-02T09:54:47.072Z,97157.19
2023-05-02T09:57:13.501Z,97163.38
2023-05-02T09:59:39.781Z,97161.22
2023-05-02T10:02:06.026Z,97165.00
2023-05-02T10:04:32.363Z,97171.22
2023-05-02T10:06:58.734Z,97167.72
2023-05-02T10:09:25.021Z,97173.09
2023-05-02T10:11:51.285Z,97170.91
2023-05-02T10:14:17.541Z,97170.41
2023-05-02T10:16:43.917Z,97174.16
2023-05-02T10:19:10.185Z,97181.44
2023-05-02T10:21:36.476Z,97178.19
2023-05-02T10:24:02.729Z,97174.09
2023-05-02T10:26:29.014Z,97172.69
2023-05-02T10:28:55.303Z,97167.78
2023-05-02T10:31:21.639Z,97152.06
2023-05-02T10:33:47.945Z,97157.72
2023-05-02T10:36:14.230Z,97166.41
2023-05-02T10:38:40.505Z,97163.69
2023-05-02T10:41:06.771Z,97153.63
2023-05-02T10:43:33.038Z,97155.28
2023-05-02T10:45:59.361Z,97160.91
2023-05-02T10:48:25.614Z,97146.38
2023-05-02T10:50:51.895Z,97161.50
2023-05-02T10:53:18.150Z,97157.16
2023-05-02T10:55:44.420Z,97160.88
2023-05-02T10:58:10.695Z,97153.59
2023-05-02T11:00:36.955Z,97152.50
2023-05-02T11:03:03.370Z,97158.72
2023-05-02T11:05:29.763Z,97156.81
2023-05-02T11:07:56.048Z,97149.00
2023-05-02T11:10:22.311Z,97140.09
2023-05-02T11:12:48.622Z,97141.78
2023-05-02T11:15:14.891Z,97148.25
2023-05-02T11:17:41.194Z,97148.47
2023-05-02T11:20:07.475Z,97146.34
2023-05-02T11:22:33.741Z,97136.59
2023-05-02T11:25:00.197Z,97151.00
2023-05-02T11:27:26.641Z,97146.94
2023-05-02T11:29:52.892Z,97153.91
2023-05-02T11:32:19.186Z,97152.84
2023-05-02T11:34:45.571Z,97147.59
2023-05-02T11:37:11.824Z,97158.78
2023-05-02T11:39:38.061Z,97152.44
2023-05-02T11:42:04.333Z,97150.97
2023-05-02T11:44:30.587Z,97148.19
2023-05-02T11:46:56.851Z,97148.47
2023-05-02T11:49:23.122Z,97143.09
2023-05-02T11:51:49.392Z,97153.84
2023-05-02T11:54:15.706Z,97156.63
2023-05-02T11:56:42.057Z,97156.44
2023-05-02T11:59:08.343Z,97145.25
2023-05-02T12:01:34.610Z,97138.63
2023-05-02T12:04:01.044Z,97139.69
2023-05-02T12:06:27.436Z,97138.50
2023-05-02T12:08:53.779Z,97134.69
2023-05-02T12:11:20.061Z,97141.88
2023-05-02T12:13:46.346Z,97151.44
2023-05-02T12:16:12.706Z,97145.22
2023-05-02T12:18:39.011Z,97144.13
2023-05-02T12:21:05.289Z,97155.94
2023-05-02T12:23:31.563Z,97156.66
2023-05-02T12:25:57.850Z,97155.72
2023-05-02T12:28:24.143Z,97146.88
2023-05-02T12:30:50.589Z,97152.75
2023-05-02T12:33:16.975Z,97157.13
2023-05-02T12:35:43.352Z,97156.69
2023-05-02T12:38:09.853Z,97155.00
2023-05-02T12:40:36.232Z,97158.28
2023-05-02T12:43:02.537Z,97152.44
2023-05-02T12:45:28.793Z,97150.91
2023-05-02T12:47:55.149Z,97141.31
2023-05-02T12:50:21.571Z,97143.44
2023-05-02T12:52:47.876Z,97147.41
2023-05-02T12:55:14.141Z,97143.22
2023-05-02T12:57:40.433Z,97140.44
2023-05-02T13:00:06.682Z,97144.16
2023-05-02T13:02:33.147Z,97135.66
2023-05-02T13:04:59.438Z,97138.13
2023-05-02T13:07:25.716Z,97132.63
2023-05-02T13:09:51.963Z,97135.13
2023-05-02T13:12:18.252Z,97129.63
2023-05-02T13:14:44.571Z,97139.75
2023-05-02T13:17:10.973Z,97125.50
2023-05-02T13:19:40.431Z,97137.25
2023-05-02T13:22:08.676Z,97138.13
2023-05-02T13:24:34.945Z,97136.66
2023-05-02T13:27:01.212Z,97139.91
2023-05-02T13:29:27.470Z,97134.38
2023-05-02T13:31:53.758Z,97138.53
2023-05-02T13:34:20.023Z,97138.03
2023-05-02T13:36:46.671Z,97132.50
2023-05-02T13:39:12.988Z,97131.69
2023-05-02T13:41:39.312Z,97129.66
2023-05-02T13:44:05.564Z,97128.16
2023-05-02T13:46:31.914Z,97132.38
2023-05-02T13:48:58.233Z,97124.13
2023-05-02T13:51:24.524Z,97125.91
2023-05-02T13:53:50.821Z,97131.22
2023-05-02T13:56:17.097Z,97125.84
2023-05-02T13:58:43.371Z,97132.59
2023-05-02T14:01:09.688Z,97134.00
2023-05-02T14:03:36.197Z,97124.41
2023-05-02T14:06:02.611Z,97127.56
2023-05-02T14:08:28.885Z,97128.78
2023-05-02T14:10:55.187Z,97129.34
2023-05-02T14:13:21.464Z,97126.47
2023-05-02T14:15:47.814Z,97122.84
2023-05-02T14:18:14.109Z,97125.34
2023-05-02T14:20:41.452Z,97126.41
2023-05-02T14:23:07.864Z,97128.84
2023-05-02T14:25:34.235Z,97131.19
2023-05-02T14:28:00.544Z,97137.19
2023-05-02T14:30:26.802Z,97127.50
2023-05-02T14:32:53.123Z,97131.56
2023-05-02T14:35:19.460Z,97131.81
2023-05-02T14:37:45.706Z,97135.78
2023-05-02T14:40:11.995Z,97139.63
2023-05-02T14:42:38.269Z,97123.81
2023-05-02T14:45:04.530Z,97127.66
2023-05-02T14:47:30.837Z,97137.63
2023-05-02T14:49:57.162Z,97134.72
2023-05-02T14:52:23.436Z,97129.16
2023-05-02T14:54:49.690Z,97133.31
2023-05-02T14:57:15.985Z,97123.72
2023-05-02T14:59:42.280Z,97123.78
2023-05-02T15:02:08.628Z,97130.88
2023-05-02T15:04:34.999Z,97118.63
2023-05-02T15:07:01.427Z,97119.88
2023-05-02T15:09:27.794Z,97116.50
2023-05-02T15:11:54.073Z,97116.31
2023-05-02T15:14:20.434Z,97111.72
2023-05-02T15:16:46.760Z,97117.66
2023-05-02T15:19:13.085Z,97113.16
2023-05-02T15:21:39.367Z,97122.53
2023-05-02T15:24:05.643Z,97113.13
2023-05-02T15:26:31.911Z,97121.50
2023-05-02T15:28:58.183Z,97112.53
2023-05-02T15:31:24.491Z,97118.16
2023-05-02T15:33:50.812Z,97118.16
2023-05-02T15:36:17.072Z,97117.38
2023-05-02T15:38:43.363Z,97123.19
2023-05-02T15:41:09.649Z,97120.44
2023-05-02T15:43:35.918Z,97112.56
2023-05-02T15:46:02.210Z,97114.63
2023-05-02T15:48:28.633Z,97131.69
2023-05-02T15:50:54.967Z,97127.16
2023-05-02T15:53:21.248Z,97121.97
2023-05-02T15:55:47.500Z,97131.16
2023-05-02T15:58:13.790Z,97125.38
2023-05-02T16:00:40.085Z,97126.75
2023-05-02T16:03:06.492Z,97123.53
2023-05-02T16:05:32.845Z,97123.50
2023-05-02T16:07:59.097Z,97134.03
2023-05-02T16:10:25.343Z,97127.00
2023-05-02T16:12:51.640Z,97127.28
2023-05-02T16:15:17.920Z,97124.50
2023-05-02T16:17:44.250Z,97125.47
2023-05-02T16:20:12.667Z,97131.06
2023-05-02T16:22:39.144Z,97120.78
2023-05-02T16:25:05.430Z,97126.63
2023-05-02T16:27:31.724Z,97113.38
2023-05-02T16:29:57.972Z,97127.69
2023-05-02T16:32:24.328Z,97122.22
2023-05-02T16:34:50.643Z,97119.81
2023-05-02T16:37:16.933Z,97120.16
2023-05-02T16:39:43.215Z,97124.25
2023-05-02T16:42:09.493Z,97127.69
2023-05-02T16:44:35.765Z,97117.47
2023-05-02T16:47:02.131Z,97124.06
2023-05-02T16:49:28.504Z,97124.41
2023-05-02T16:51:54.761Z,97121.75
2023-05-02T16:54:21.055Z,97124.13
2023-05-02T16:56:47.366Z,97127.78
2023-05-02T16:59:13.634Z,97116.69
2023-05-02T17:01:39.904Z,97129.88
2023-05-02T17:04:06.168Z,97120.47
2023-05-02T17:06:32.463Z,97117.78
2023-05-02T17:08:58.770Z,97118.41
2023-05-02T17:11:25.014Z,97120.97
2023-05-02T17:13:51.261Z,97124.28
2023-05-02T17:16:17.607Z,97124.91
2023-05-02T17:18:43.916Z,97124.66
2023-05-02T17:21:10.195Z,97131.22
2023-05-02T17:23:36.472Z,97133.75
2023-05-02T17:26:02.728Z,97130.44
2023-05-02T17:28:28.999Z,97130.69
2023-05-02T17:30:55.358Z,97134.97
2023-05-02T17:33:21.631Z,97138.69
2023-05-02T17:35:47.949Z,97146.25
2023-05-02T17:38:14.220Z,97150.34
2023-05-02T17:40:40.494Z,97155.19
2023-05-02T17:43:06.757Z,97156.53
2023-05-02T17:45:33.051Z,97156.59
2023-05-02T17:47:59.709Z,97163.91
2023-05-02T17:50:27.085Z,97159.69
2023-05-02T17:52:53.331Z,97166.19
2023-05-02T17:55:19.593Z,97177.47
2023-05-02T17:57:45.910Z,97166.47
2023-05-02T18:00:12.176Z,97167.50
2023-05-02T18:02:38.561Z,97174.38
2023-05-02T18:05:05.145Z,97170.22
2023-05-02T18:07:31.559Z,97179.31
2023-05-02T18:09:57.820Z,97167.34
2023-05-02T18:12:24.119Z,97162.06
2023-05-02T18:14:50.389Z,97165.91
2023-05-02T18:17:16.648Z,97165.41
2023-05-02T18:19:42.904Z,97156.34
2023-05-02T18:22:09.183Z,97165.75
2023-05-02T18:24:35.508Z,97161.22
2023-05-02T18:27:01.835Z,97171.56
2023-05-02T18:29:28.098Z,97173.16
2023-05-02T18:31:54.444Z,97166.78
2023-05-02T18:34:20.789Z,97166.63
2023-05-02T18:36:47.067Z,97167.81
2023-05-02T18:39:13.495Z,97170.44
2023-05-02T18:41:39.793Z,97166.50
2023-05-02T18:44:06.087Z,97172.56
2023-05-02T18:46:32.392Z,97174.84
2023-05-02T18:48:58.712Z,97176.19
2023-05-02T18:51:25.028Z,97170.78
2023-05-02T18:53:51.361Z,97180.13
2023-05-02T18:56:17.636Z,97184.78
2023-05-02T18:58:43.927Z,97183.28
2023-05-02T19:01:10.272Z,97186.31
2023-05-02T19:03:36.737Z,97187.13
2023-05-02T19:06:03.062Z,97186.72
2023-05-02T19:08:29.345Z,97184.13
2023-05-02T19:10:55.625Z,97171.75
2023-05-02T19:13:21.900Z,97185.91
2023-05-02T19:15:48.218Z,97175.75
2023-05-02T19:18:14.530Z,97173.19
2023-05-02T19:20:40.818Z,97182.25
2023-05-02T19:23:18.959Z,97172.16
2023-05-02T19:25:46.716Z,97171.34
2023-05-02T19:28:12.990Z,97171.13
2023-05-02T19:30:39.370Z,97180.03
2023-05-02T19:33:05.661Z,97178.97
2023-05-02T19:35:31.964Z,97185.03
2023-05-02T19:37:58.233Z,97186.66
2023-05-02T19:40:24.471Z,97186.94
2023-05-02T19:42:50.733Z,97180.75
2023-05-02T19:45:17.004Z,97184.56
2023-05-02T19:47:43.323Z,97185.34
2023-05-02T19:50:09.638Z,97181.81
2023-05-02T19:52:35.903Z,97182.13
2023-05-02T19:55:02.447Z,97171.31
2023-05-02T19:57:28.888Z,97180.81
2023-05-02T19:59:55.156Z,97187.06
2023-05-02T20:02:21.487Z,97191.13
2023-05-02T20:04:47.783Z,97187.66
2023-05-02T20:07:14.030Z,97201.72
2023-05-02T20:09:40.301Z,97194.72
2023-05-02T20:12:06.608Z,97194.16
2023-05-02T20:14:32.931Z,97198.47
2023-05-02T20:17:01.346Z,97198.72
2023-05-02T20:19:28.187Z,97200.31
2023-05-02T20:21:54.447Z,97187.38
2023-05-02T20:24:20.793Z,97188.50
2023-05-02T20:26:47.078Z,97193.13
2023-05-02T20:29:13.350Z,97185.34
2023-05-02T20:31:39.686Z,97201.53
2023-05-02T20:34:06.009Z,97197.22
2023-05-02T20:36:32.310Z,97203.16
2023-05-02T20:38:58.585Z,97206.38
2023-05-02T20:41:24.866Z,97207.44
2023-05-02T20:43:51.135Z,97204.22
2023-05-02T20:46:17.476Z,97208.25
2023-05-02T20:48:43.796Z,97201.56
2023-05-02T20:51:10.069Z,97205.69
2023-05-02T20:53:36.342Z,97208.44
2023-05-02T20:56:02.617Z,97203.03
2023-05-02T20:58:28.889Z,97204.38
2023-05-02T21:00:55.145Z,97209.22
2023-05-02T21:03:21.656Z,97205.72
2023-05-02T21:05:48.011Z,97206.56
2023-05-02T21:08:14.283Z,97202.78
2023-05-02T21:10:40.566Z,97193.34
2023-05-02T21:13:06.813Z,97197.13
2023-05-02T21:15:33.094Z,97199.00
2023-05-02T21:17:59.677Z,97198.75
2023-05-02T21:20:26.152Z,97200.91
2023-05-02T21:22:52.577Z,97200.34
2023-05-02T21:25:18.960Z,97199.50
2023-05-02T21:27:45.394Z,97215.91
2023-05-02T21:30:11.813Z,97210.69
2023-05-02T21:32:38.170Z,97201.53
2023-05-02T21:35:07.327Z,97204.16
2023-05-02T21:37:33.653Z,97201.47
2023-05-02T21:40:00.441Z,97210.56
2023-05-02T21:42:27.048Z,97194.38
2023-05-02T21:44:53.295Z,97195.06
2023-05-02T21:47:19.582Z,97193.66
2023-05-02T21:49:45.854Z,97193.59
2023-05-02T21:52:12.109Z,97184.19
2023-05-02T21:54:38.387Z,97181.25
2023-05-02T21:57:04.682Z,97177.72
2023-05-02T21:59:30.928Z,97184.41
2023-05-02T22:01:57.229Z,97187.59
2023-05-02T22:04:23.545Z,97174.44
2023-05-02T22:06:49.875Z,97161.53
2023-05-02T22:09:16.171Z,97177.84
2023-05-02T22:11:42.410Z,97164.66
2023-05-02T22:14:08.696Z,97172.25
2023-05-02T22:16:35.008Z,97170.63
2023-05-02T22:19:01.327Z,97178.44
2023-05-02T22:21:27.590Z,97177.94
2023-05-02T22:23:53.863Z,97191.66
2023-05-02T22:26:20.109Z,97182.53
2023-05-02T22:28:46.351Z,97189.22
2023-05-02T22:31:12.613Z,97188.72
2023-05-02T22:33:38.880Z,97205.09
2023-05-02T22:36:05.158Z,97184.66
2023-05-02T22:38:31.434Z,97204.84
2023-05-02T22:40:57.708Z,97196.78
2023-05-02T22:43:23.967Z,97202.66
2023-05-02T22:45:50.256Z,97209.66
2023-05-02T22:48:16.551Z,97214.78
2023-05-02T22:50:42.897Z,97219.69
2023-05-02T22:53:09.169Z,97225.34
2023-05-02T22:55:35.418Z,97222.69
2023-05-02T22:58:01.658Z,97228.06
2023-05-02T23:00:27.926Z,97225.34
2023-05-02T23:02:54.281Z,97226.97
2023-05-02T23:05:20.556Z,97210.56
2023-05-02T23:07:46.812Z,97211.88
2023-05-02T23:10:13.086Z,97210.50
2023-05-02T23:12:39.335Z,97209.06
2023-05-02T23:15:05.628Z,97214.66
2023-05-02T23:17:31.890Z,97214.97
2023-05-02T23:19:58.190Z,97215.47
2023-05-02T23:22:24.457Z,97216.00
2023-05-02T23:24:50.726Z,97214.13
2023-05-02T23:27:16.998Z,97217.91
2023-05-02T23:29:43.282Z,97212.81
2023-05-02T23:32:09.540Z,97223.03
2023-05-02T23:34:35.836Z,97229.16
2023-05-02T23:37:02.074Z,97228.28
2023-05-02T23:39:28.297Z,97224.53
2023-05-02T23:41:54.549Z,97227.84
2023-05-02T23:44:20.814Z,97226.53
2023-05-02T23:46:47.160Z,97235.19
2023-05-02T23:49:13.495Z,97231.19
2023-05-02T23:51:39.780Z,97230.75
2023-05-02T23:54:06.044Z,97235.66
2023-05-02T23:56:32.315Z,97233.88
2023-05-02T23:58:58.567Z,97225.66
